Bemidji, Minnesota
Current Conditions -  °F | °C
As of 6:33 PM on Friday 24 Oct 2014 (Local Time) from KBJI Reporting Station
Clear Clear  
Wind Chill: 62°   Ceiling: Unl
Heat Index: 62°   Visibility: 10mi
Dew Point: 42°   Wind: 13mph
Humidity: 48%   Direction: 270°W
Pressure: 29.77"   Gusts: 18mph
Location:  47.47°N, 94.88°W
Report Text: KBJI 242333Z AUTO 27011G16KT 10SM CLR 17/06 A2977 RMK AO2 T01670055
Loading
Personal Weather Stations






























Interactive Weather Map
Tropical Storm Tracking
New forecast layout! Learn more

10-Day Weather Forecast

Advertisements
Track Severe Weather on mobile